Thompsons Station, Tennessee
Current Conditions -  °F | °C
As of 9:53 AM on Sunday 25 Jan 2015 (Local Time) from KBNA Reporting Station
Broken Clouds Broken Clouds  
Wind Chill:   Ceiling: 17000
Heat Index:   Visibility: 10mi
Dew Point:   Wind: 15mph
Humidity: 65%   Direction: 190°S
Pressure: 29.75"   Gusts: 20mph
Location:  35.8°N, 86.91°W
Report Text: KBNA 251553Z 19013G17KT 10SM BKN170 BKN200 07/01 A2975 RMK AO2 SLP076 T00720011 $
Loading
Personal Weather Stations






























Interactive Weather Map New forecast layout! Learn more

10-Day Weather Forecast

Advertisements
Track Severe Weather on mobile